Terminal Aerodrome Forecast
Issued by NWS Greer, SC

Home | Current Version | Previous Version | Text Only | Print | Product List | Glossary On
Versions: 1 2 3 4 5 6 7 8 9 10 11 12 13
019
FTUS42 KGSP 221133
TAFGSP
TAF
KGSP 221133Z 2212/2312 05005KT P6SM BKN050
     FM221900 10008KT P6SM VCSH OVC050
     FM222100 09007KT P6SM OVC045 PROB30 2221/2224 4SM -RA OVC025
     FM230000 06008KT P6SM OVC030 PROB30 2300/2302 4SM -RA OVC015
     FM230200 07011KT 6SM -RA SCT009 OVC015=

USA.gov is the U.S. government's official web portal to all federal, state and local government web resources and services.